createdAt,value
2022-08-17T00:00:34.197Z,19.09
2022-08-17T00:03:15.241Z,19.05
2022-08-17T00:05:49.922Z,19.00
2022-08-17T00:08:20.339Z,18.96
2022-08-17T00:10:48.904Z,18.93
2022-08-17T00:13:24.139Z,18.93
2022-08-17T00:15:50.980Z,18.94
2022-08-17T00:19:01.182Z,18.93
2022-08-17T00:21:10.557Z,18.97
2022-08-17T00:23:38.252Z,18.97
2022-08-17T00:26:05.246Z,18.93
2022-08-17T00:28:33.394Z,18.89
2022-08-17T00:31:00.658Z,18.85
2022-08-17T00:33:31.610Z,18.85
2022-08-17T00:35:59.762Z,18.84
2022-08-17T00:38:28.771Z,18.82
2022-08-17T00:41:00.947Z,18.79
2022-08-17T00:43:40.791Z,18.77
2022-08-17T00:46:13.388Z,18.76
2022-08-17T00:48:40.436Z,18.77
2022-08-17T00:51:22.814Z,18.82
2022-08-17T00:54:02.728Z,18.82
2022-08-17T00:56:36.543Z,18.78
2022-08-17T00:59:05.213Z,18.71
2022-08-17T01:01:32.884Z,18.67
2022-08-17T01:04:01.545Z,18.66
2022-08-17T01:06:28.800Z,18.66
2022-08-17T01:08:58.063Z,18.59
2022-08-17T01:11:25.793Z,18.50
2022-08-17T01:13:52.598Z,18.47
2022-08-17T01:16:26.780Z,18.41
2022-08-17T01:18:58.568Z,18.41
2022-08-17T01:21:31.221Z,18.43
2022-08-17T01:23:58.000Z,18.47
2022-08-17T01:26:24.684Z,18.49
2022-08-17T01:28:55.382Z,18.49
2022-08-17T01:31:25.240Z,18.44
2022-08-17T01:33:52.277Z,18.38
2022-08-17T01:36:19.040Z,18.35
2022-08-17T01:38:45.791Z,18.35
2022-08-17T01:41:16.836Z,18.36
2022-08-17T01:43:52.093Z,18.36
2022-08-17T01:46:27.181Z,18.34
2022-08-17T01:48:55.492Z,18.34
2022-08-17T01:51:22.468Z,18.34
2022-08-17T01:53:57.559Z,18.31
2022-08-17T01:56:26.373Z,18.26
2022-08-17T01:58:53.870Z,18.22
2022-08-17T02:01:24.194Z,18.23
2022-08-17T02:03:56.314Z,18.25
2022-08-17T02:06:29.956Z,18.27
2022-08-17T02:09:02.773Z,18.28
2022-08-17T02:11:33.030Z,18.29
2022-08-17T02:14:03.655Z,18.27
2022-08-17T02:16:38.318Z,18.22
2022-08-17T02:19:08.465Z,18.19
2022-08-17T02:21:36.861Z,18.16
2022-08-17T02:24:05.429Z,18.16
2022-08-17T02:26:32.959Z,18.12
2022-08-17T02:28:59.803Z,18.08
2022-08-17T02:31:26.449Z,18.08
2022-08-17T02:34:00.466Z,18.10
2022-08-17T02:36:34.728Z,18.12
2022-08-17T02:39:03.567Z,18.13
2022-08-17T02:41:32.835Z,18.07
2022-08-17T02:44:00.635Z,18.01
2022-08-17T02:46:27.430Z,17.97
2022-08-17T02:48:54.420Z,17.98
2022-08-17T02:51:21.181Z,17.99
2022-08-17T02:53:48.168Z,17.99
2022-08-17T02:56:14.868Z,17.98
2022-08-17T02:58:41.651Z,17.94
2022-08-17T03:01:10.289Z,17.91
2022-08-17T03:03:38.408Z,17.86
2022-08-17T03:06:07.701Z,17.83
2022-08-17T03:08:35.487Z,17.78
2022-08-17T03:11:03.966Z,17.74
2022-08-17T03:13:31.005Z,17.73
2022-08-17T03:15:58.699Z,17.75
2022-08-17T03:18:26.370Z,17.78
2022-08-17T03:20:55.441Z,17.77
2022-08-17T03:23:24.290Z,17.78
2022-08-17T03:25:53.646Z,17.82
2022-08-17T03:28:21.903Z,17.85
2022-08-17T03:30:48.913Z,17.81
2022-08-17T03:33:16.286Z,17.76
2022-08-17T03:35:43.069Z,17.73
2022-08-17T03:38:12.456Z,17.75
2022-08-17T03:40:58.517Z,17.77
2022-08-17T03:43:30.540Z,17.77
2022-08-17T03:46:28.341Z,17.78
2022-08-17T03:49:19.503Z,17.78
2022-08-17T03:52:07.094Z,17.77
2022-08-17T03:54:52.537Z,17.76
2022-08-17T03:57:19.498Z,17.73
2022-08-17T03:59:46.501Z,17.76
2022-08-17T04:02:19.827Z,17.78
2022-08-17T04:04:46.988Z,17.75
2022-08-17T04:07:13.733Z,17.73
2022-08-17T04:09:42.997Z,17.75
2022-08-17T04:12:11.458Z,17.80
2022-08-17T04:14:52.776Z,17.85
2022-08-17T04:17:21.768Z,17.86
2022-08-17T04:19:48.421Z,17.86
2022-08-17T04:22:30.997Z,17.88
2022-08-17T04:25:18.311Z,17.94
2022-08-17T04:27:45.229Z,17.99
2022-08-17T04:30:15.519Z,18.07
2022-08-17T04:33:04.597Z,18.15
2022-08-17T04:35:40.856Z,18.19
2022-08-17T04:38:09.373Z,18.26
2022-08-17T04:40:54.741Z,18.31
2022-08-17T04:43:24.013Z,18.38
2022-08-17T04:45:58.167Z,18.43
2022-08-17T04:48:36.364Z,18.48
2022-08-17T04:51:19.816Z,18.54
2022-08-17T04:53:54.346Z,18.59
2022-08-17T04:56:23.106Z,18.64
2022-08-17T04:58:52.070Z,18.71
2022-08-17T05:01:23.248Z,18.78
2022-08-17T05:03:52.622Z,18.88
2022-08-17T05:06:19.357Z,18.94
2022-08-17T05:08:46.040Z,18.99
2022-08-17T05:11:12.812Z,19.06
2022-08-17T05:13:39.467Z,19.15
2022-08-17T05:16:06.833Z,19.23
2022-08-17T05:18:33.507Z,19.28
2022-08-17T05:21:00.224Z,19.35
2022-08-17T05:23:42.109Z,19.41
2022-08-17T05:26:12.988Z,19.48
2022-08-17T05:28:53.919Z,19.54
2022-08-17T05:31:21.121Z,19.59
2022-08-17T05:33:49.573Z,19.65
2022-08-17T05:36:38.129Z,19.72
2022-08-17T05:39:04.361Z,19.81
2022-08-17T05:41:31.126Z,19.90
2022-08-17T05:43:58.753Z,19.98
2022-08-17T05:46:28.804Z,20.05
2022-08-17T05:49:08.067Z,20.15
2022-08-17T05:52:08.176Z,20.21
2022-08-17T05:54:47.775Z,20.24
2022-08-17T05:57:39.874Z,20.31
2022-08-17T06:00:30.868Z,20.44
2022-08-17T06:03:22.872Z,20.52
2022-08-17T06:05:58.755Z,20.64
2022-08-17T06:08:56.379Z,20.73
2022-08-17T06:11:37.415Z,20.80
2022-08-17T06:14:22.385Z,20.91
2022-08-17T06:16:54.956Z,21.03
2022-08-17T06:19:40.795Z,21.14
2022-08-17T06:22:10.917Z,21.25
2022-08-17T06:24:46.545Z,21.39
2022-08-17T06:27:16.248Z,21.53
2022-08-17T06:29:48.884Z,21.64
2022-08-17T06:32:17.290Z,21.75
2022-08-17T06:34:45.993Z,21.86
2022-08-17T06:37:34.440Z,21.99
2022-08-17T06:40:19.316Z,22.07
2022-08-17T06:43:16.516Z,22.10
2022-08-17T06:45:52.559Z,22.15
2022-08-17T06:48:32.006Z,22.24
2022-08-17T06:51:25.161Z,22.34
2022-08-17T06:54:03.512Z,22.46
2022-08-17T06:56:53.728Z,22.56
2022-08-17T06:59:56.354Z,22.65
2022-08-17T07:02:55.922Z,22.76
2022-08-17T07:05:24.890Z,22.85
2022-08-17T07:08:03.264Z,22.90
2022-08-17T07:10:53.928Z,22.99
2022-08-17T07:13:49.330Z,23.06
2022-08-17T07:16:41.337Z,23.13
2022-08-17T07:19:11.021Z,23.20
2022-08-17T07:22:03.883Z,23.31
2022-08-17T07:24:35.978Z,23.43
2022-08-17T07:27:06.594Z,23.54
2022-08-17T07:29:39.995Z,23.66
2022-08-17T07:32:09.679Z,23.77
2022-08-17T07:35:02.370Z,23.87
2022-08-17T07:37:31.357Z,23.96
2022-08-17T07:39:59.521Z,24.06
2022-08-17T07:43:01.534Z,24.22
2022-08-17T07:45:49.541Z,24.34
2022-08-17T07:48:26.210Z,24.48
2022-08-17T07:50:53.374Z,24.63
2022-08-17T07:53:24.304Z,24.76
2022-08-17T07:55:55.226Z,24.86
2022-08-17T07:58:24.466Z,24.88
2022-08-17T08:01:05.094Z,24.88
2022-08-17T08:03:34.140Z,25.01
2022-08-17T08:06:02.181Z,25.15
2022-08-17T08:08:42.458Z,25.27
2022-08-17T08:11:30.334Z,25.44
2022-08-17T08:14:21.047Z,25.61
2022-08-17T08:17:00.677Z,25.81
2022-08-17T08:19:30.583Z,25.96
2022-08-17T08:22:07.732Z,26.19
2022-08-17T08:24:59.956Z,26.44
2022-08-17T08:27:48.802Z,26.74
2022-08-17T08:30:21.616Z,26.90
2022-08-17T08:33:36.430Z,27.12
2022-08-17T08:37:13.054Z,27.45
2022-08-17T08:39:29.179Z,28.01
2022-08-17T08:42:10.759Z,28.58
2022-08-17T08:45:05.518Z,29.24
2022-08-17T08:47:54.846Z,29.99
2022-08-17T08:50:43.101Z,30.68
2022-08-17T08:53:19.090Z,31.60
2022-08-17T08:55:53.648Z,32.18
2022-08-17T08:58:31.923Z,33.12
2022-08-17T09:01:31.568Z,33.93
2022-08-17T09:04:25.146Z,33.99
2022-08-17T09:07:22.724Z,33.77
2022-08-17T09:10:02.762Z,33.64
2022-08-17T09:12:51.631Z,34.50
2022-08-17T09:15:26.722Z,35.44
2022-08-17T09:18:59.104Z,36.18
2022-08-17T09:21:01.115Z,36.69
2022-08-17T09:23:33.291Z,36.55
2022-08-17T09:26:49.022Z,36.61
2022-08-17T09:29:17.543Z,37.06
2022-08-17T09:31:52.760Z,37.98
2022-08-17T09:34:33.035Z,38.98
2022-08-17T09:37:34.064Z,39.97
2022-08-17T09:40:09.756Z,41.09
2022-08-17T09:42:53.986Z,41.94
2022-08-17T09:45:45.315Z,42.84
2022-08-17T09:48:27.648Z,43.53
2022-08-17T09:51:07.184Z,44.28
2022-08-17T09:53:37.562Z,44.83
2022-08-17T09:56:34.805Z,45.56
2022-08-17T09:59:14.032Z,45.60
2022-08-17T10:01:47.036Z,45.41
2022-08-17T10:04:55.301Z,45.26
2022-08-17T10:07:38.337Z,45.86
2022-08-17T10:10:30.063Z,46.13
2022-08-17T10:13:12.878Z,46.54
2022-08-17T10:15:59.108Z,46.46
2022-08-17T10:18:49.116Z,46.56
2022-08-17T10:21:36.340Z,46.60
2022-08-17T10:24:36.506Z,46.28
2022-08-17T10:27:09.106Z,46.50
2022-08-17T10:29:49.255Z,46.54
2022-08-17T10:32:49.840Z,46.69
2022-08-17T10:35:36.252Z,45.84
2022-08-17T10:38:27.441Z,44.60
2022-08-17T10:41:00.750Z,43.49
2022-08-17T10:43:36.939Z,42.44
2022-08-17T10:46:45.096Z,41.47
2022-08-17T10:49:17.575Z,41.04
2022-08-17T10:51:52.490Z,41.55
2022-08-17T10:54:24.971Z,41.98
2022-08-17T10:56:57.057Z,41.83
2022-08-17T10:59:35.530Z,41.08
2022-08-17T11:02:04.893Z,40.19
2022-08-17T11:05:08.380Z,39.73
2022-08-17T11:07:48.682Z,39.47
2022-08-17T11:10:23.892Z,39.32
2022-08-17T11:13:03.700Z,38.90
2022-08-17T11:15:49.627Z,38.25
2022-08-17T11:18:53.957Z,37.50
2022-08-17T11:21:52.097Z,36.94
2022-08-17T11:24:32.450Z,37.56
2022-08-17T11:27:04.547Z,38.35
2022-08-17T11:30:02.942Z,39.31
2022-08-17T11:32:47.337Z,40.46
2022-08-17T11:35:19.232Z,41.56
2022-08-17T11:38:04.221Z,42.09
2022-08-17T11:40:55.411Z,42.93
2022-08-17T11:43:29.300Z,43.66
2022-08-17T11:46:54.352Z,43.80
2022-08-17T11:49:55.810Z,43.01
2022-08-17T11:52:40.989Z,42.26
2022-08-17T11:55:34.004Z,42.50
2022-08-17T11:58:17.939Z,43.35
2022-08-17T12:00:54.818Z,44.04
2022-08-17T12:03:33.523Z,44.44
2022-08-17T12:06:23.074Z,45.13
2022-08-17T12:09:02.275Z,45.38
2022-08-17T12:11:56.324Z,45.64
2022-08-17T12:15:07.931Z,45.59
2022-08-17T12:17:40.637Z,45.80
2022-08-17T12:20:19.983Z,46.06
2022-08-17T12:23:14.439Z,45.71
2022-08-17T12:26:04.360Z,45.43
2022-08-17T12:28:38.836Z,44.41
2022-08-17T12:31:24.698Z,43.12
2022-08-17T12:33:51.950Z,42.64
2022-08-17T12:36:25.096Z,42.22
2022-08-17T12:39:13.860Z,41.45
2022-08-17T12:41:50.252Z,40.46
2022-08-17T12:44:17.117Z,39.61
2022-08-17T12:46:51.829Z,38.80
2022-08-17T12:49:36.730Z,37.84
2022-08-17T12:52:11.382Z,37.14
2022-08-17T12:54:59.647Z,37.39
2022-08-17T12:57:33.467Z,38.49
2022-08-17T13:00:16.340Z,39.54
2022-08-17T13:02:58.524Z,40.81
2022-08-17T13:05:30.759Z,41.79
2022-08-17T13:08:00.756Z,42.58
2022-08-17T13:10:33.036Z,42.94
2022-08-17T13:13:05.003Z,42.57
2022-08-17T13:15:44.697Z,41.69
2022-08-17T13:18:39.314Z,40.71
2022-08-17T13:21:12.633Z,39.72
2022-08-17T13:23:39.710Z,39.69
2022-08-17T13:26:16.242Z,40.19
2022-08-17T13:28:51.631Z,40.82
2022-08-17T13:31:30.428Z,41.61
2022-08-17T13:34:26.692Z,42.08
2022-08-17T13:37:32.644Z,41.55
2022-08-17T13:40:05.178Z,41.22
2022-08-17T13:42:55.511Z,41.44
2022-08-17T13:45:38.853Z,41.89
2022-08-17T13:48:08.848Z,42.28
2022-08-17T13:50:48.728Z,42.24
2022-08-17T13:53:30.095Z,41.60
2022-08-17T13:56:38.007Z,40.91
2022-08-17T13:59:11.821Z,40.72
2022-08-17T14:01:49.640Z,40.54
2022-08-17T14:04:27.875Z,40.67
2022-08-17T14:07:11.591Z,40.73
2022-08-17T14:09:46.744Z,40.90
2022-08-17T14:12:16.343Z,41.05
2022-08-17T14:14:44.581Z,41.10
2022-08-17T14:17:13.639Z,40.94
2022-08-17T14:19:40.328Z,40.80
2022-08-17T14:22:12.724Z,40.61
2022-08-17T14:24:44.664Z,40.41
2022-08-17T14:27:12.146Z,40.07
2022-08-17T14:29:41.256Z,39.87
2022-08-17T14:32:21.284Z,39.53
2022-08-17T14:34:49.772Z,39.22
2022-08-17T14:37:21.351Z,38.99
2022-08-17T14:39:48.365Z,38.83
2022-08-17T14:42:18.438Z,38.63
2022-08-17T14:44:45.101Z,38.25
2022-08-17T14:47:16.571Z,37.69
2022-08-17T14:49:43.825Z,37.00
2022-08-17T14:52:16.635Z,36.38
2022-08-17T14:54:45.792Z,35.78
2022-08-17T14:57:25.808Z,35.23
2022-08-17T14:59:59.935Z,34.71
2022-08-17T15:02:31.156Z,34.30
2022-08-17T15:05:03.672Z,33.90
2022-08-17T15:07:34.142Z,33.55
2022-08-17T15:10:02.038Z,33.18
2022-08-17T15:12:33.183Z,32.84
2022-08-17T15:15:06.413Z,32.57
2022-08-17T15:17:44.180Z,32.32
2022-08-17T15:20:15.833Z,32.03
2022-08-17T15:22:44.178Z,31.79
2022-08-17T15:25:11.840Z,31.56
2022-08-17T15:27:39.127Z,31.34
2022-08-17T15:30:07.787Z,31.14
2022-08-17T15:32:38.205Z,30.97
2022-08-17T15:35:06.902Z,30.82
2022-08-17T15:37:33.896Z,30.72
2022-08-17T15:40:03.283Z,30.59
2022-08-17T15:42:30.030Z,30.48
2022-08-17T15:44:56.843Z,30.36
2022-08-17T15:47:24.491Z,30.24
2022-08-17T15:49:51.158Z,30.10
2022-08-17T15:52:24.985Z,29.99
2022-08-17T15:54:58.927Z,29.93
2022-08-17T15:57:27.153Z,29.85
2022-08-17T15:59:58.646Z,29.77
2022-08-17T16:03:14.448Z,29.69
2022-08-17T16:05:24.896Z,29.59
2022-08-17T16:07:52.617Z,29.52
2022-08-17T16:10:21.762Z,29.45
2022-08-17T16:13:02.321Z,29.38
2022-08-17T16:15:31.282Z,29.31
2022-08-17T16:17:57.856Z,29.24
2022-08-17T16:20:27.947Z,29.14
2022-08-17T16:22:55.126Z,29.09
2022-08-17T16:25:51.951Z,29.05
2022-08-17T16:28:16.123Z,28.98
2022-08-17T16:30:43.661Z,28.94
2022-08-17T16:33:11.735Z,28.89
2022-08-17T16:35:38.422Z,28.84
2022-08-17T16:38:05.249Z,28.80
2022-08-17T16:40:35.979Z,28.77
2022-08-17T16:43:03.415Z,28.72
2022-08-17T16:45:36.857Z,28.65
2022-08-17T16:48:04.931Z,28.55
2022-08-17T16:50:32.654Z,28.50
2022-08-17T16:53:11.876Z,28.45
2022-08-17T16:55:38.709Z,28.39
2022-08-17T16:58:06.583Z,28.34
2022-08-17T17:00:36.254Z,28.29
2022-08-17T17:03:26.818Z,28.23
2022-08-17T17:06:06.562Z,28.19
2022-08-17T17:08:44.359Z,28.15
2022-08-17T17:11:25.033Z,28.08
2022-08-17T17:14:02.237Z,28.00
2022-08-17T17:16:40.321Z,27.92
2022-08-17T17:19:34.210Z,27.82
2022-08-17T17:22:30.222Z,27.66
2022-08-17T17:25:20.421Z,27.56
2022-08-17T17:28:24.962Z,27.44
2022-08-17T17:31:05.208Z,27.33
2022-08-17T17:33:50.613Z,27.21
2022-08-17T17:36:46.704Z,27.10
2022-08-17T17:39:29.306Z,26.97
2022-08-17T17:42:07.855Z,26.86
2022-08-17T17:44:41.692Z,26.73
2022-08-17T17:47:09.622Z,26.59
2022-08-17T17:49:42.019Z,26.46
2022-08-17T17:52:15.567Z,26.32
2022-08-17T17:55:01.966Z,26.18
2022-08-17T17:57:56.412Z,26.09
2022-08-17T18:00:35.688Z,25.95
2022-08-17T18:03:14.228Z,25.83
2022-08-17T18:06:01.396Z,25.73
2022-08-17T18:08:31.961Z,25.62
2022-08-17T18:11:26.879Z,25.49
2022-08-17T18:14:20.685Z,25.32
2022-08-17T18:16:55.812Z,25.23
2022-08-17T18:19:25.516Z,25.15
2022-08-17T18:22:14.431Z,25.05
2022-08-17T18:24:44.773Z,24.92
2022-08-17T18:27:20.347Z,24.85
2022-08-17T18:29:48.275Z,24.76
2022-08-17T18:32:36.772Z,24.68
2022-08-17T18:35:09.401Z,24.62
2022-08-17T18:37:37.895Z,24.55
2022-08-17T18:40:16.658Z,24.50
2022-08-17T18:43:03.475Z,24.44
2022-08-17T18:45:44.743Z,24.41
2022-08-17T18:48:59.310Z,24.40
2022-08-17T18:51:42.269Z,24.42
2022-08-17T18:54:15.658Z,24.46
2022-08-17T18:56:48.948Z,24.48
2022-08-17T18:59:21.716Z,24.53
2022-08-17T19:02:27.216Z,24.55
2022-08-17T19:05:01.518Z,24.54
2022-08-17T19:07:28.215Z,24.56
2022-08-17T19:10:28.879Z,24.56
2022-08-17T19:13:02.030Z,24.55
2022-08-17T19:15:45.406Z,24.54
2022-08-17T19:18:37.196Z,24.55
2022-08-17T19:21:12.379Z,24.50
2022-08-17T19:23:54.016Z,24.49
2022-08-17T19:26:51.345Z,24.48
2022-08-17T19:29:25.864Z,24.46
2022-08-17T19:31:56.187Z,24.45
2022-08-17T19:34:33.577Z,24.40
2022-08-17T19:37:25.713Z,24.36
2022-08-17T19:40:29.329Z,24.32
2022-08-17T19:43:15.173Z,24.29
2022-08-17T19:46:12.194Z,24.26
2022-08-17T19:49:04.007Z,24.24
2022-08-17T19:51:41.663Z,24.24
2022-08-17T19:54:22.254Z,24.22
2022-08-17T19:57:08.441Z,24.22
2022-08-17T19:59:50.467Z,24.19
2022-08-17T20:02:35.216Z,24.15
2022-08-17T20:05:14.043Z,24.11
2022-08-17T20:08:20.481Z,24.07
2022-08-17T20:11:07.479Z,23.99
2022-08-17T20:13:52.293Z,23.87
2022-08-17T20:16:20.634Z,23.78
2022-08-17T20:18:51.991Z,23.67
2022-08-17T20:21:26.120Z,23.54
2022-08-17T20:24:10.963Z,23.42
2022-08-17T20:26:58.646Z,23.27
2022-08-17T20:29:37.252Z,23.09
2022-08-17T20:32:47.542Z,22.93
2022-08-17T20:35:25.294Z,22.83
2022-08-17T20:38:05.667Z,22.76
2022-08-17T20:40:38.575Z,22.71
2022-08-17T20:43:30.165Z,22.64
2022-08-17T20:46:34.436Z,22.61
2022-08-17T20:49:16.572Z,22.64
2022-08-17T20:52:07.800Z,22.63
2022-08-17T20:54:57.439Z,22.62
2022-08-17T20:57:33.090Z,22.56
2022-08-17T21:00:17.073Z,22.45
2022-08-17T21:02:46.887Z,22.37
2022-08-17T21:05:36.383Z,22.27
2022-08-17T21:08:18.493Z,22.15
2022-08-17T21:10:47.097Z,22.08
2022-08-17T21:13:15.936Z,22.04
2022-08-17T21:15:45.977Z,22.00
2022-08-17T21:18:31.478Z,21.94
2022-08-17T21:21:17.808Z,21.89
2022-08-17T21:24:02.683Z,21.83
2022-08-17T21:26:39.033Z,21.72
2022-08-17T21:29:32.505Z,21.67
2022-08-17T21:32:03.257Z,21.61
2022-08-17T21:34:33.074Z,21.57
2022-08-17T21:37:19.912Z,21.52
2022-08-17T21:40:10.323Z,21.48
2022-08-17T21:42:44.907Z,21.51
2022-08-17T21:45:21.074Z,21.53
2022-08-17T21:47:50.043Z,21.53
2022-08-17T21:50:22.510Z,21.52
2022-08-17T21:52:53.997Z,21.50
2022-08-17T21:55:30.241Z,21.47
2022-08-17T21:58:14.325Z,21.48
2022-08-17T22:00:44.317Z,21.48
2022-08-17T22:03:23.777Z,21.49
2022-08-17T22:05:51.685Z,21.48
2022-08-17T22:08:24.375Z,21.47
2022-08-17T22:11:01.125Z,21.45
2022-08-17T22:13:29.614Z,21.43
2022-08-17T22:16:28.440Z,21.40
2022-08-17T22:18:58.691Z,21.38
2022-08-17T22:21:26.296Z,21.37
2022-08-17T22:24:06.806Z,21.39
2022-08-17T22:27:11.079Z,21.41
2022-08-17T22:29:42.904Z,21.42
2022-08-17T22:32:10.027Z,21.41
2022-08-17T22:34:38.569Z,21.42
2022-08-17T22:37:27.356Z,21.42
2022-08-17T22:39:57.999Z,21.42
2022-08-17T22:42:25.262Z,21.36
2022-08-17T22:44:53.685Z,21.36
2022-08-17T22:47:38.973Z,21.34
2022-08-17T22:50:22.577Z,21.34
2022-08-17T22:53:36.483Z,21.31
2022-08-17T22:56:23.051Z,21.24
2022-08-17T22:59:16.559Z,21.19
2022-08-17T23:02:05.043Z,21.07
2022-08-17T23:04:36.024Z,20.99
2022-08-17T23:07:04.341Z,20.94
2022-08-17T23:09:31.052Z,20.87
2022-08-17T23:11:58.868Z,20.81
2022-08-17T23:14:31.739Z,20.75
2022-08-17T23:16:59.660Z,20.65
2022-08-17T23:19:27.814Z,20.58
2022-08-17T23:21:56.474Z,20.53
2022-08-17T23:24:25.892Z,20.49
2022-08-17T23:26:53.401Z,20.45
2022-08-17T23:29:21.605Z,20.45
2022-08-17T23:31:49.393Z,20.44
2022-08-17T23:34:18.487Z,20.43
2022-08-17T23:36:52.572Z,20.38
2022-08-17T23:39:27.309Z,20.33
2022-08-17T23:41:58.091Z,20.26
2022-08-17T23:44:25.745Z,20.23
2022-08-17T23:46:53.617Z,20.21
2022-08-17T23:49:20.998Z,20.22
2022-08-17T23:51:48.900Z,20.20
2022-08-17T23:54:26.990Z,20.18
2022-08-17T23:56:54.068Z,20.19
2022-08-17T23:59:22.679Z,20.21
